Time;durP1;ratioP1;P1;durP2;ratioP2;P2;SDS_P1;SDS_P2;PMS_P1;PMS_P2;Temp;Humidity;BMP_temperature;BMP_pressure;BME280_temperature;BME280_humidity;BME280_pressure;Samples;Min_cycle;Max_cycle;Signal;HPM_P1;HPM_P2
2022/09/09 00:00:58;;;;;;;10.18;6.78;;;14.20;99.90;;;;;;5021432;27;89821;-31
2022/09/09 00:03:34;;;;;;;10.10;6.47;;;14.10;99.90;;;;;;5021953;28;89758;-30
2022/09/09 00:06:03;;;;;;;10.40;7.55;;;14.10;99.90;;;;;;5021995;27;88623;-31
2022/09/09 00:08:54;;;;;;;7.47;6.18;;;14.10;99.90;;;;;;5020482;27;89136;-33
2022/09/09 00:11:36;;;;;;;10.82;8.13;;;14.00;99.90;;;;;;5020848;28;91709;-29
2022/09/09 00:14:08;;;;;;;8.02;6.45;;;14.00;99.90;;;;;;5021481;27;90243;-30
2022/09/09 00:16:40;;;;;;;9.05;7.00;;;14.00;99.90;;;;;;5021466;27;88860;-33
2022/09/09 00:19:45;;;;;;;8.80;7.65;;;13.90;99.90;;;;;;5022104;27;90412;-30
2022/09/09 00:22:20;;;;;;;7.70;6.45;;;13.90;99.90;;;;;;5001042;28;89442;-31
2022/09/09 00:24:53;;;;;;;9.05;7.32;;;13.90;99.90;;;;;;5021164;27;89731;-34
2022/09/09 00:27:23;;;;;;;10.07;6.70;;;13.90;99.90;;;;;;5021375;27;87636;-31
2022/09/09 00:30:20;;;;;;;13.60;7.30;;;13.80;99.90;;;;;;5021460;28;91266;-32
2022/09/09 00:32:47;;;;;;;10.13;7.60;;;13.80;99.90;;;;;;5010647;28;89739;-30
2022/09/09 00:35:18;;;;;;;16.87;8.80;;;13.80;99.90;;;;;;5020256;28;90157;-33
2022/09/09 00:37:47;;;;;;;8.52;6.85;;;13.80;99.90;;;;;;5051624;22;89522;-34
2022/09/09 00:40:26;;;;;;;8.82;6.20;;;13.80;99.90;;;;;;5021179;27;90299;-30
2022/09/09 00:43:17;;;;;;;12.10;7.70;;;13.70;99.90;;;;;;5020781;27;90092;-33
2022/09/09 00:46:14;;;;;;;10.63;7.68;;;13.70;99.90;;;;;;5020168;28;89406;-32
2022/09/09 00:49:03;;;;;;;14.82;7.55;;;13.80;99.90;;;;;;5020953;28;88876;-33
2022/09/09 00:51:53;;;;;;;7.90;6.28;;;13.80;99.90;;;;;;5020169;27;90139;-32
2022/09/09 00:54:46;;;;;;;9.80;6.88;;;13.80;99.90;;;;;;5021002;27;89710;-29
2022/09/09 00:57:31;;;;;;;12.55;7.15;;;13.70;99.90;;;;;;5019954;28;90236;-32
2022/09/09 01:00:18;;;;;;;7.10;6.35;;;13.80;99.90;;;;;;5021035;27;88659;-28
2022/09/09 01:03:41;;;;;;;15.15;6.43;;;13.80;99.90;;;;;;5020661;28;91462;-30
2022/09/09 01:06:25;;;;;;;11.57;6.18;;;13.80;99.90;;;;;;4956665;28;90742;-29
2022/09/09 01:09:23;;;;;;;10.52;6.82;;;13.80;99.90;;;;;;4957898;28;90084;-30
2022/09/09 01:12:01;;;;;;;8.65;5.57;;;13.80;99.90;;;;;;5001866;28;90135;-31
2022/09/09 01:14:36;;;;;;;5.60;5.05;;;13.90;99.90;;;;;;5020660;27;90112;-33
2022/09/09 01:17:23;;;;;;;10.95;6.65;;;13.90;99.90;;;;;;5020497;27;89523;-34
2022/09/09 01:20:07;;;;;;;8.93;5.15;;;13.90;99.90;;;;;;5019842;28;89628;-29
2022/09/09 01:22:50;;;;;;;6.45;5.53;;;13.90;99.90;;;;;;5020654;27;88963;-28
2022/09/09 01:25:43;;;;;;;7.30;5.80;;;14.00;99.90;;;;;;5019619;27;90096;-33
2022/09/09 01:28:18;;;;;;;10.25;5.07;;;14.10;99.90;;;;;;5020731;28;89552;-30
2022/09/09 01:30:43;;;;;;;6.63;5.82;;;14.10;99.90;;;;;;5020506;27;90350;-29
2022/09/09 01:33:17;;;;;;;10.75;5.10;;;14.10;99.90;;;;;;5019938;28;89898;-31
2022/09/09 01:35:55;;;;;;;7.45;5.45;;;14.20;99.90;;;;;;5020217;27;89975;-30
2022/09/09 01:38:22;;;;;;;7.75;5.40;;;14.20;99.90;;;;;;5019744;27;89586;-34
2022/09/09 01:40:49;;;;;;;7.10;5.45;;;14.30;99.90;;;;;;5020808;28;89973;-30
2022/09/09 01:43:14;;;;;;;6.18;4.47;;;14.30;99.90;;;;;;5020689;27;89136;-31
2022/09/09 01:45:42;;;;;;;10.05;6.22;;;14.30;99.90;;;;;;5019718;28;89023;-33
2022/09/09 01:48:08;;;;;;;9.30;6.10;;;14.30;99.90;;;;;;5020061;27;89717;-30
2022/09/09 01:50:33;;;;;;;11.63;5.47;;;14.30;99.90;;;;;;5019543;28;89493;-33
2022/09/09 01:53:01;;;;;;;11.30;5.55;;;14.40;99.90;;;;;;5018260;28;88392;-31
2022/09/09 01:55:36;;;;;;;7.50;5.93;;;14.30;99.90;;;;;;5019342;28;90186;-33
2022/09/09 01:58:25;;;;;;;7.80;5.88;;;14.40;99.90;;;;;;5019634;28;91894;-31
2022/09/09 02:01:01;;;;;;;16.17;6.32;;;14.30;99.90;;;;;;5019234;27;89993;-28
2022/09/09 02:03:31;;;;;;;7.57;5.47;;;14.30;99.90;;;;;;5019089;27;89768;-31
2022/09/09 02:06:18;;;;;;;6.82;5.93;;;14.30;99.90;;;;;;5019660;27;91226;-32
2022/09/09 02:08:49;;;;;;;7.40;5.80;;;14.40;99.90;;;;;;5018918;28;89825;-34
2022/09/09 02:11:21;;;;;;;6.65;5.53;;;14.40;99.90;;;;;;5019371;27;90088;-30
2022/09/09 02:13:50;;;;;;;9.63;7.55;;;14.40;99.90;;;;;;5019630;28;89802;-34
2022/09/09 02:16:30;;;;;;;9.55;6.53;;;14.40;99.90;;;;;;5019175;27;90004;-32
2022/09/09 02:19:25;;;;;;;9.85;6.53;;;14.40;99.90;;;;;;5019772;27;90042;-31
2022/09/09 02:21:53;;;;;;;7.85;6.15;;;14.40;99.90;;;;;;5018927;28;89415;-30
2022/09/09 02:24:19;;;;;;;8.68;7.10;;;14.40;99.90;;;;;;5018785;28;90169;-34
2022/09/09 02:26:47;;;;;;;9.40;7.35;;;14.40;99.90;;;;;;5017969;28;90393;-32
2022/09/09 02:29:25;;;;;;;7.50;6.78;;;14.40;99.90;;;;;;5019259;28;90228;-31
2022/09/09 02:31:53;;;;;;;8.97;6.60;;;14.40;99.90;;;;;;5019070;27;89686;-31
2022/09/09 02:34:21;;;;;;;8.18;6.82;;;14.40;99.90;;;;;;5018793;27;90073;-30
2022/09/09 02:36:47;;;;;;;;;;;14.40;99.90;;;;;;5018748;28;90066;-34
2022/09/09 02:39:13;;;;;;;9.48;6.30;;;14.40;99.90;;;;;;5020529;27;89823;-31
2022/09/09 02:41:41;;;;;;;9.63;6.47;;;14.40;99.90;;;;;;5019423;27;89442;-33
2022/09/09 02:44:16;;;;;;;7.50;6.40;;;14.40;99.90;;;;;;5019129;27;87569;-31
2022/09/09 02:46:58;;;;;;;9.73;8.00;;;14.40;99.90;;;;;;5019121;27;90059;-31
2022/09/09 02:49:49;;;;;;;6.78;5.97;;;14.40;99.90;;;;;;5018129;28;91031;-29
2022/09/09 02:52:33;;;;;;;12.32;9.07;;;14.40;99.90;;;;;;5018824;27;89997;-30
2022/09/09 02:55:08;;;;;;;12.07;8.70;;;14.40;99.90;;;;;;5019545;27;89028;-33
2022/09/09 02:57:34;;;;;;;8.57;6.25;;;14.40;99.90;;;;;;5018755;27;89837;-30
2022/09/09 03:00:01;;;;;;;11.45;7.30;;;14.40;99.90;;;;;;5018102;28;89979;-33
2022/09/09 03:02:27;;;;;;;12.35;8.65;;;14.40;99.90;;;;;;5019065;28;90100;-30
2022/09/09 03:04:52;;;;;;;9.93;7.15;;;14.40;99.90;;;;;;5018832;27;88762;-30
2022/09/09 03:07:19;;;;;;;10.65;8.32;;;14.40;99.90;;;;;;5018813;28;89944;-30
2022/09/09 03:09:45;;;;;;;11.55;7.35;;;14.50;99.90;;;;;;5004752;27;91446;-33
2022/09/09 03:12:11;;;;;;;12.10;6.72;;;14.50;99.90;;;;;;5018725;27;90367;-30
2022/09/09 03:14:37;;;;;;;12.45;8.32;;;14.40;99.90;;;;;;5018583;27;90518;-34
2022/09/09 03:17:07;;;;;;;12.57;7.05;;;14.50;99.90;;;;;;5021896;27;89367;-33
2022/09/09 03:19:35;;;;;;;11.10;7.15;;;14.40;99.90;;;;;;5021795;27;89566;-33
2022/09/09 03:22:00;;;;;;;8.25;7.47;;;14.40;99.90;;;;;;5021940;27;89561;-29
2022/09/09 03:24:26;;;;;;;8.85;7.60;;;14.40;99.90;;;;;;5021876;28;89073;-31
2022/09/09 03:26:51;;;;;;;7.13;6.18;;;14.40;99.90;;;;;;5021376;28;90224;-32
2022/09/09 03:29:18;;;;;;;10.05;8.73;;;14.40;99.90;;;;;;5021601;28;89747;-31
2022/09/09 03:31:44;;;;;;;7.40;5.40;;;14.40;99.90;;;;;;5022693;27;88655;-30
2022/09/09 03:34:10;;;;;;;5.88;4.88;;;14.40;99.90;;;;;;5021780;27;89008;-32
2022/09/09 03:36:36;;;;;;;7.72;5.38;;;14.40;99.90;;;;;;5021881;28;89965;-31
2022/09/09 03:39:03;;;;;;;7.03;4.88;;;14.40;99.90;;;;;;5022016;27;89556;-29
2022/09/09 03:41:29;;;;;;;6.40;5.13;;;14.40;99.90;;;;;;5021526;28;90733;-31
2022/09/09 03:43:55;;;;;;;7.28;4.75;;;14.40;99.90;;;;;;5022215;27;89660;-33
2022/09/09 03:46:22;;;;;;;6.65;4.82;;;14.40;99.90;;;;;;5021016;28;90038;-33
2022/09/09 03:48:48;;;;;;;4.85;3.17;;;14.30;99.90;;;;;;5021491;27;90866;-29
2022/09/09 03:51:15;;;;;;;4.57;3.20;;;14.30;99.90;;;;;;5021760;28;89720;-31
2022/09/09 03:53:41;;;;;;;5.07;3.93;;;14.30;99.90;;;;;;5022366;27;89297;-32
2022/09/09 03:56:07;;;;;;;4.50;3.33;;;14.30;99.90;;;;;;5021436;27;90582;-32
2022/09/09 03:58:34;;;;;;;4.78;3.15;;;14.40;99.90;;;;;;5021736;28;89513;-33
2022/09/09 04:01:03;;;;;;;4.32;3.22;;;14.30;99.90;;;;;;5020764;28;89492;-31
2022/09/09 04:03:30;;;;;;;4.78;3.33;;;14.30;99.90;;;;;;5020268;27;90422;-33
2022/09/09 04:05:58;;;;;;;3.47;2.75;;;14.30;99.90;;;;;;5021220;27;90426;-33
2022/09/09 04:08:26;;;;;;;3.33;2.90;;;14.30;99.90;;;;;;5021822;27;89407;-32
2022/09/09 04:10:53;;;;;;;5.97;3.10;;;14.30;99.90;;;;;;5021820;27;90013;-33
2022/09/09 04:13:19;;;;;;;4.97;4.00;;;14.30;99.90;;;;;;5021256;27;89250;-30
2022/09/09 04:15:55;;;;;;;6.38;4.28;;;14.30;99.90;;;;;;5021183;28;89519;-33
2022/09/09 04:18:21;;;;;;;6.03;4.13;;;14.30;99.90;;;;;;5020163;28;89743;-33
2022/09/09 04:20:48;;;;;;;9.75;5.07;;;14.30;99.90;;;;;;5019699;28;90910;-33
2022/09/09 04:23:14;;;;;;;7.15;4.55;;;14.30;99.90;;;;;;5020778;27;89191;-32
2022/09/09 04:25:44;;;;;;;5.97;5.40;;;14.30;99.90;;;;;;5021220;28;90341;-31
2022/09/09 04:28:10;;;;;;;7.95;4.97;;;14.30;99.90;;;;;;5019168;27;90839;-32
2022/09/09 04:30:36;;;;;;;8.68;5.97;;;14.30;99.90;;;;;;5020845;28;90380;-33
2022/09/09 04:33:01;;;;;;;7.70;5.68;;;14.30;99.90;;;;;;5021657;28;89170;-33
2022/09/09 04:35:27;;;;;;;8.52;5.75;;;14.30;99.90;;;;;;5020323;28;90158;-32
2022/09/09 04:37:52;;;;;;;6.75;6.15;;;14.30;99.90;;;;;;5020383;28;89667;-33
2022/09/09 04:40:18;;;;;;;8.65;6.72;;;14.30;99.90;;;;;;5020911;28;90588;-30
2022/09/09 04:42:43;;;;;;;12.25;6.75;;;14.30;99.90;;;;;;5021148;28;89551;-29
2022/09/09 04:45:11;;;;;;;11.18;7.15;;;14.30;99.90;;;;;;5020956;28;90205;-32
2022/09/09 04:47:36;;;;;;;11.50;6.63;;;14.30;99.90;;;;;;5020661;27;89819;-30
2022/09/09 04:50:02;;;;;;;11.73;8.88;;;14.30;99.90;;;;;;5020275;27;89438;-30
2022/09/09 04:52:28;;;;;;;9.23;6.97;;;14.30;99.90;;;;;;5020582;27;89228;-34
2022/09/09 04:54:53;;;;;;;7.75;6.35;;;14.30;99.90;;;;;;5020540;28;90529;-33
2022/09/09 04:57:20;;;;;;;8.23;6.90;;;14.30;99.90;;;;;;5020594;27;89297;-31
2022/09/09 04:59:45;;;;;;;9.48;6.57;;;14.30;99.90;;;;;;5019912;27;89676;-32
2022/09/09 05:02:11;;;;;;;7.18;6.25;;;14.30;99.90;;;;;;5019386;28;88574;-32
2022/09/09 05:04:37;;;;;;;8.40;7.30;;;14.30;99.90;;;;;;5020087;28;90190;-33
2022/09/09 05:07:02;;;;;;;8.20;7.32;;;14.30;99.90;;;;;;5018751;28;89679;-33
2022/09/09 05:09:28;;;;;;;7.63;6.82;;;14.30;99.90;;;;;;5020864;28;89621;-33
2022/09/09 05:11:54;;;;;;;7.68;6.20;;;14.30;99.90;;;;;;5019987;28;87958;-31
2022/09/09 05:14:20;;;;;;;9.88;7.68;;;14.30;99.90;;;;;;5020083;28;90375;-34
2022/09/09 05:16:47;;;;;;;7.97;7.05;;;14.30;99.90;;;;;;5019418;28;90533;-29
2022/09/09 05:19:12;;;;;;;13.23;7.28;;;14.30;99.90;;;;;;5019780;27;91906;-32
2022/09/09 05:21:38;;;;;;;7.05;6.35;;;14.30;99.90;;;;;;5021404;27;90266;-31
2022/09/09 05:24:04;;;;;;;7.10;5.85;;;14.30;99.90;;;;;;5020429;28;90032;-29
2022/09/09 05:26:30;;;;;;;8.25;5.82;;;14.30;99.90;;;;;;5019525;28;88718;-34
2022/09/09 05:28:56;;;;;;;7.93;6.45;;;14.30;99.90;;;;;;5020451;28;89648;-30
2022/09/09 05:31:22;;;;;;;11.00;6.38;;;14.30;99.90;;;;;;5019949;27;89121;-30
2022/09/09 05:33:49;;;;;;;10.35;5.50;;;14.30;99.90;;;;;;5021023;28;90069;-34
2022/09/09 05:36:20;;;;;;;7.50;6.90;;;14.30;99.90;;;;;;5019353;27;91581;-31
2022/09/09 05:38:45;;;;;;;7.63;5.80;;;14.30;99.90;;;;;;5020033;27;88248;-30
2022/09/09 05:41:15;;;;;;;7.95;6.43;;;14.30;99.90;;;;;;5019123;28;90142;-35
2022/09/09 05:43:43;;;;;;;7.72;6.75;;;14.30;99.90;;;;;;5019850;27;90470;-32
2022/09/09 05:46:11;;;;;;;6.60;4.95;;;14.30;99.90;;;;;;5019255;28;89888;-31
2022/09/09 05:48:42;;;;;;;7.95;7.18;;;14.30;99.90;;;;;;5019650;28;89570;-32
2022/09/09 05:51:13;;;;;;;10.30;5.22;;;14.30;99.90;;;;;;5019219;27;87509;-31
2022/09/09 05:53:38;;;;;;;7.53;5.78;;;14.30;99.90;;;;;;5019462;27;90086;-30
2022/09/09 05:56:06;;;;;;;5.63;5.10;;;14.30;99.90;;;;;;5019276;27;89661;-32
2022/09/09 05:58:32;;;;;;;10.70;5.47;;;14.40;99.90;;;;;;5019335;28;89234;-31
2022/09/09 06:01:05;;;;;;;8.30;5.30;;;14.40;99.90;;;;;;5018683;28;87545;-30
2022/09/09 06:03:31;;;;;;;5.85;4.65;;;14.40;99.90;;;;;;5019696;28;90399;-29
2022/09/09 06:06:02;;;;;;;7.53;6.70;;;14.40;99.90;;;;;;5018227;28;91276;-34
2022/09/09 06:08:28;;;;;;;6.80;5.90;;;14.50;99.90;;;;;;5019129;27;90598;-30
2022/09/09 06:10:53;;;;;;;6.90;6.22;;;14.50;99.90;;;;;;5019589;27;89269;-32
2022/09/09 06:13:19;;;;;;;8.15;6.70;;;14.50;99.90;;;;;;5018926;27;89474;-31
2022/09/09 06:15:51;;;;;;;7.30;6.63;;;14.60;99.90;;;;;;5018932;28;89610;-33
2022/09/09 06:18:18;;;;;;;7.15;6.43;;;14.60;99.90;;;;;;5018223;27;91301;-32
2022/09/09 06:20:57;;;;;;;7.18;6.55;;;14.70;99.90;;;;;;5019146;27;88570;-32
2022/09/09 06:23:22;;;;;;;10.48;6.63;;;14.70;99.90;;;;;;5019082;27;90152;-33
2022/09/09 06:25:48;;;;;;;6.85;6.15;;;14.70;99.90;;;;;;5019220;28;89789;-31
2022/09/09 06:28:15;;;;;;;5.85;4.93;;;14.80;99.90;;;;;;5017833;27;89510;-31
2022/09/09 06:30:41;;;;;;;6.63;5.65;;;14.80;99.90;;;;;;5018543;27;89923;-30
2022/09/09 06:33:07;;;;;;;9.20;6.10;;;14.80;99.90;;;;;;5001448;28;90250;-33
2022/09/09 06:35:32;;;;;;;7.95;5.38;;;14.80;99.90;;;;;;5001407;27;90068;-30
2022/09/09 06:37:58;;;;;;;10.15;5.78;;;14.90;99.90;;;;;;5007974;28;89460;-33
2022/09/09 06:40:24;;;;;;;6.80;5.47;;;14.90;99.90;;;;;;5018307;27;88243;-33
2022/09/09 06:42:50;;;;;;;7.70;6.82;;;15.00;99.90;;;;;;5018909;27;91107;-35
2022/09/09 06:45:16;;;;;;;6.32;5.65;;;15.00;99.90;;;;;;5018944;28;89745;-31
2022/09/09 06:47:42;;;;;;;7.15;4.80;;;15.00;99.90;;;;;;5018029;28;89566;-29
2022/09/09 06:50:08;;;;;;;7.50;5.60;;;15.10;99.90;;;;;;5019399;27;88033;-30
2022/09/09 06:52:34;;;;;;;6.75;5.20;;;15.10;99.90;;;;;;5021696;28;90559;-30
2022/09/09 06:54:59;;;;;;;5.95;4.90;;;15.10;99.90;;;;;;5022123;28;90938;-34
2022/09/09 06:57:25;;;;;;;5.20;4.70;;;15.10;99.90;;;;;;5020375;28;90369;-31
2022/09/09 06:59:50;;;;;;;6.75;5.43;;;15.10;99.90;;;;;;5021833;28;89534;-34
2022/09/09 07:02:16;;;;;;;7.93;5.75;;;15.10;99.90;;;;;;5021380;27;90533;-30
2022/09/09 07:04:43;;;;;;;7.43;5.35;;;15.10;99.90;;;;;;5021496;28;89253;-30
2022/09/09 07:07:09;;;;;;;7.13;5.35;;;15.10;99.90;;;;;;5021823;27;89682;-32
2022/09/09 07:09:35;;;;;;;7.72;5.07;;;15.10;99.90;;;;;;5020122;27;89559;-30
2022/09/09 07:12:01;;;;;;;8.15;6.47;;;15.20;99.90;;;;;;5021896;28;90315;-32
2022/09/09 07:14:26;;;;;;;11.63;6.07;;;15.20;99.90;;;;;;5021696;27;89306;-31
2022/09/09 07:16:52;;;;;;;9.35;6.43;;;15.20;99.90;;;;;;5021641;27;89398;-31
2022/09/09 07:19:18;;;;;;;7.30;6.40;;;15.20;99.90;;;;;;5021616;27;88845;-31
2022/09/09 07:21:44;;;;;;;5.80;5.15;;;15.20;99.90;;;;;;5021110;28;90345;-31
2022/09/09 07:24:10;;;;;;;10.45;5.10;;;15.20;99.90;;;;;;5020662;27;90322;-33
2022/09/09 07:26:38;;;;;;;9.23;6.70;;;15.30;99.90;;;;;;5021419;27;89594;-30
2022/09/09 07:29:03;;;;;;;7.13;5.83;;;15.50;99.90;;;;;;5022082;27;89794;-33
2022/09/09 07:31:32;;;;;;;8.20;6.07;;;15.60;99.90;;;;;;5020714;27;90054;-31
2022/09/09 07:33:59;;;;;;;6.28;5.57;;;15.80;99.90;;;;;;5021194;28;89878;-29
2022/09/09 07:36:33;;;;;;;5.82;4.85;;;15.90;99.90;;;;;;5020823;27;89098;-31
2022/09/09 07:39:05;;;;;;;7.85;6.22;;;16.10;99.90;;;;;;5021400;27;89603;-31
2022/09/09 07:41:42;;;;;;;8.02;5.80;;;16.20;99.90;;;;;;5021257;28;90213;-32
2022/09/09 07:44:14;;;;;;;5.57;5.00;;;16.40;99.90;;;;;;5021088;27;90712;-31
2022/09/09 07:46:41;;;;;;;9.73;6.40;;;16.60;99.90;;;;;;5021116;28;90409;-29
2022/09/09 07:49:08;;;;;;;6.75;6.05;;;16.80;99.90;;;;;;5020982;28;88849;-31
2022/09/09 07:51:40;;;;;;;5.75;5.25;;;16.90;99.90;;;;;;5020709;27;91023;-35
2022/09/09 07:54:09;;;;;;;6.70;5.70;;;16.90;99.90;;;;;;5021013;27;89603;-30
2022/09/09 07:56:36;;;;;;;6.40;5.60;;;17.00;99.90;;;;;;5020610;28;89394;-31
2022/09/09 07:59:06;;;;;;;8.20;5.33;;;17.10;99.90;;;;;;5021831;27;88552;-32
2022/09/09 08:01:40;;;;;;;8.75;6.07;;;17.20;99.90;;;;;;5021018;27;90516;-30
2022/09/09 08:04:14;;;;;;;8.30;4.78;;;17.30;99.90;;;;;;5020758;27;89600;-33
2022/09/09 08:06:42;;;;;;;6.28;5.10;;;17.40;99.90;;;;;;5021313;27;89107;-31
2022/09/09 08:09:09;;;;;;;6.50;5.80;;;17.50;99.90;;;;;;5020624;27;89844;-30
2022/09/09 08:11:35;;;;;;;6.97;5.07;;;17.60;99.90;;;;;;5020291;27;90172;-33
2022/09/09 08:14:05;;;;;;;6.18;5.25;;;17.70;99.90;;;;;;5021123;27;90018;-33
2022/09/09 08:16:36;;;;;;;11.55;6.28;;;17.80;99.90;;;;;;5019650;27;89567;-34
2022/09/09 08:19:02;;;;;;;6.55;5.20;;;17.80;99.90;;;;;;5020162;27;88340;-33
2022/09/09 08:21:30;;;;;;;8.55;7.35;;;18.00;99.90;;;;;;5020193;27;90123;-32
2022/09/09 08:23:58;;;;;;;6.38;5.70;;;18.10;99.90;;;;;;5020807;28;89627;-31
2022/09/09 08:26:26;;;;;;;8.50;6.40;;;18.20;99.90;;;;;;5019561;28;90473;-33
2022/09/09 08:28:56;;;;;;;8.88;7.07;;;18.30;99.90;;;;;;5020400;28;87983;-31
2022/09/09 08:31:37;;;;;;;6.55;5.78;;;18.40;99.90;;;;;;5020204;27;90369;-32
2022/09/09 08:34:03;;;;;;;7.22;5.65;;;18.50;99.90;;;;;;5016528;28;91165;-31
2022/09/09 08:36:33;;;;;;;5.47;4.95;;;18.50;99.90;;;;;;5020009;27;90127;-31
2022/09/09 08:38:59;;;;;;;6.10;5.57;;;18.50;99.90;;;;;;5021177;28;89821;-32
2022/09/09 08:41:36;;;;;;;6.50;5.47;;;18.50;99.90;;;;;;5020672;27;90425;-34
2022/09/09 08:44:18;;;;;;;7.82;6.18;;;18.50;99.90;;;;;;5015237;28;89692;-30
2022/09/09 08:47:11;;;;;;;6.63;6.03;;;18.50;99.90;;;;;;5020525;27;90294;-33
2022/09/09 08:49:58;;;;;;;11.07;5.50;;;18.40;99.90;;;;;;5021381;27;89476;-30
2022/09/09 08:52:30;;;;;;;5.80;5.22;;;18.40;99.90;;;;;;5020152;28;89353;-30
2022/09/09 08:55:14;;;;;;;8.82;5.70;;;18.40;99.90;;;;;;5020739;27;89952;-32
2022/09/09 08:57:40;;;;;;;6.45;5.47;;;18.40;99.90;;;;;;5020077;27;89157;-31
2022/09/09 09:00:10;;;;;;;6.78;5.35;;;18.40;99.90;;;;;;5020818;28;89321;-33
2022/09/09 09:02:50;;;;;;;6.68;4.72;;;18.40;99.90;;;;;;5020440;27;90495;-31
2022/09/09 09:05:15;;;;;;;8.50;4.88;;;18.50;99.90;;;;;;5020435;27;89420;-32
2022/09/09 09:07:44;;;;;;;8.93;4.72;;;18.50;99.90;;;;;;5020081;28;91869;-33
2022/09/09 09:10:28;;;;;;;6.28;4.45;;;18.40;99.90;;;;;;5019456;28;90300;-31
2022/09/09 09:12:54;;;;;;;8.45;4.35;;;18.40;99.90;;;;;;5019985;27;90132;-31
2022/09/09 09:15:26;;;;;;;8.02;5.15;;;18.50;99.90;;;;;;5020523;28;89435;-30
2022/09/09 09:17:52;;;;;;;9.07;4.47;;;18.60;99.90;;;;;;5019915;27;89658;-32
2022/09/09 09:20:29;;;;;;;8.07;4.22;;;18.70;99.90;;;;;;5019935;28;90078;-32
2022/09/09 09:22:59;;;;;;;5.78;4.78;;;18.80;99.90;;;;;;5019872;27;90576;-32
2022/09/09 09:25:35;;;;;;;6.45;5.22;;;18.90;99.90;;;;;;5019212;27;91106;-32
2022/09/09 09:28:17;;;;;;;5.35;4.85;;;18.90;99.90;;;;;;5020507;27;90456;-29
2022/09/09 09:30:45;;;;;;;4.97;4.47;;;18.70;99.90;;;;;;5019779;27;88973;-31
2022/09/09 09:33:29;;;;;;;7.90;4.63;;;18.70;99.90;;;;;;5019482;27;89824;-31
2022/09/09 09:35:55;;;;;;;9.02;4.28;;;18.70;99.90;;;;;;5019411;28;90560;-34
2022/09/09 09:38:23;;;;;;;5.10;4.70;;;18.70;99.90;;;;;;5019874;28;89934;-31
2022/09/09 09:41:00;;;;;;;7.47;4.43;;;18.80;99.90;;;;;;5020224;28;88395;-32
2022/09/09 09:43:31;;;;;;;8.93;6.00;;;18.90;99.90;;;;;;5019844;27;90257;-31
2022/09/09 09:45:57;;;;;;;6.68;3.90;;;18.90;99.90;;;;;;5020019;27;90774;-32
2022/09/09 09:48:24;;;;;;;10.20;3.80;;;19.10;99.90;;;;;;5019552;28;90972;-30
2022/09/09 09:50:53;;;;;;;9.55;3.47;;;19.10;99.90;;;;;;5018863;27;89043;-33
2022/09/09 09:53:25;;;;;;;4.47;3.75;;;19.10;99.90;;;;;;5019034;27;90618;-30
2022/09/09 09:56:04;;;;;;;7.40;4.30;;;19.10;99.90;;;;;;5018281;28;89386;-32
2022/09/09 09:58:33;;;;;;;5.72;3.58;;;19.00;99.90;;;;;;5020055;27;90281;-32
2022/09/09 10:01:00;;;;;;;5.75;3.58;;;19.00;99.90;;;;;;5019336;27;88313;-34
2022/09/09 10:03:40;;;;;;;6.40;4.22;;;19.10;99.90;;;;;;5019135;27;90176;-32
2022/09/09 10:06:06;;;;;;;6.60;3.63;;;19.30;99.90;;;;;;5018892;28;89587;-34
2022/09/09 10:08:45;;;;;;;5.47;3.70;;;19.40;99.90;;;;;;5019359;28;89433;-33
2022/09/09 10:11:24;;;;;;;5.57;3.20;;;19.50;99.90;;;;;;5019895;28;89968;-34
2022/09/09 10:13:57;;;;;;;4.47;3.03;;;19.60;99.90;;;;;;5019523;27;91727;-33
2022/09/09 10:16:44;;;;;;;6.05;2.85;;;19.60;99.90;;;;;;5017209;28;90677;-30
2022/09/09 10:19:15;;;;;;;3.92;2.97;;;19.60;99.90;;;;;;5019259;28;90535;-32
2022/09/09 10:22:13;;;;;;;5.00;3.35;;;19.60;99.90;;;;;;5019169;27;90374;-31
2022/09/09 10:25:07;;;;;;;10.45;3.53;;;19.60;99.90;;;;;;4984024;27;90122;-31
2022/09/09 10:27:46;;;;;;;6.00;3.83;;;19.50;99.90;;;;;;5019331;28;89438;-34
2022/09/09 10:30:15;;;;;;;5.88;3.47;;;19.60;99.90;;;;;;5019271;27;89265;-34
2022/09/09 10:32:55;;;;;;;4.15;2.88;;;19.50;99.90;;;;;;5019597;28;89019;-31
2022/09/09 10:35:26;;;;;;;5.93;3.38;;;19.50;99.90;;;;;;5019756;28;90483;-31
2022/09/09 10:38:10;;;;;;;5.68;4.18;;;19.50;99.90;;;;;;5018589;27;90048;-34
2022/09/09 10:40:48;;;;;;;18.20;3.22;;;19.60;99.90;;;;;;5019057;27;88549;-30
2022/09/09 10:43:23;;;;;;;7.65;3.85;;;19.70;99.90;;;;;;5019337;27;89686;-32
2022/09/09 10:46:20;;;;;;;6.57;3.05;;;19.80;99.90;;;;;;5018843;28;89990;-33
2022/09/09 10:49:23;;;;;;;9.75;3.38;;;20.00;99.90;;;;;;5005238;28;89281;-30
2022/09/09 10:51:54;;;;;;;5.40;2.85;;;20.20;99.90;;;;;;5019377;28;91127;-35
2022/09/09 10:54:33;;;;;;;3.38;2.53;;;20.40;99.90;;;;;;5019552;28;88800;-31
2022/09/09 10:57:36;;;;;;;3.17;2.65;;;20.40;99.90;;;;;;5019287;27;90923;-33
2022/09/09 11:00:31;;;;;;;10.13;3.55;;;20.20;99.90;;;;;;4983125;28;90480;-32
2022/09/09 11:03:01;;;;;;;3.78;3.25;;;20.30;99.90;;;;;;5019085;27;89162;-33
2022/09/09 11:05:46;;;;;;;2.90;2.50;;;20.30;99.90;;;;;;5018122;27;89052;-34
2022/09/09 11:08:19;;;;;;;5.43;2.92;;;20.20;99.90;;;;;;5018610;27;89605;-34
2022/09/09 11:10:58;;;;;;;3.45;3.13;;;20.20;99.90;;;;;;5017693;27;91005;-34
2022/09/09 11:13:32;;;;;;;3.30;2.35;;;20.20;99.90;;;;;;5018513;27;89955;-34
2022/09/09 11:16:17;;;;;;;4.95;2.05;;;20.10;99.90;;;;;;5019280;28;89277;-33
2022/09/09 11:18:45;;;;;;;7.57;2.45;;;20.10;99.90;;;;;;5018549;27;90394;-31
2022/09/09 11:21:25;;;;;;;5.20;2.42;;;20.30;99.90;;;;;;5019017;27;89674;-31
2022/09/09 11:23:58;;;;;;;3.65;2.05;;;20.50;99.90;;;;;;5018633;27;89706;-33
2022/09/09 11:26:50;;;;;;;8.00;2.45;;;20.60;99.90;;;;;;5018356;28;89108;-34
2022/09/09 11:29:38;;;;;;;5.00;2.40;;;20.70;99.90;;;;;;5018458;27;90439;-33
2022/09/09 11:32:20;;;;;;;2.72;2.15;;;20.80;99.90;;;;;;5018600;28;89755;-33
2022/09/09 11:35:09;;;;;;;2.70;2.15;;;20.70;99.90;;;;;;5017527;28;90905;-31
2022/09/09 11:38:10;;;;;;;3.72;2.25;;;20.60;99.90;;;;;;5019756;27;89314;-31
2022/09/09 11:40:37;;;;;;;3.60;2.30;;;20.70;99.90;;;;;;5021908;27;90379;-32
2022/09/09 11:43:05;;;;;;;4.50;2.67;;;20.70;99.90;;;;;;5021336;28;89294;-32
2022/09/09 11:45:33;;;;;;;3.80;1.90;;;20.80;99.90;;;;;;5020185;28;90175;-31
2022/09/09 11:48:00;;;;;;;6.28;2.35;;;20.80;99.90;;;;;;5022607;27;89064;-32
2022/09/09 11:50:26;;;;;;;4.53;1.80;;;20.90;99.90;;;;;;5021745;27;90370;-32
2022/09/09 11:53:04;;;;;;;3.35;1.95;;;20.90;99.90;;;;;;5021102;28;90594;-32
2022/09/09 11:55:36;;;;;;;4.53;2.55;;;20.90;99.90;;;;;;5020953;28;89371;-29
2022/09/09 11:58:04;;;;;;;3.67;2.40;;;20.90;99.90;;;;;;5021757;27;88783;-32
2022/09/09 12:00:41;;;;;;;;;;;20.90;99.90;;;;;;5021732;28;89929;-34
2022/09/09 12:03:44;;;;;;;3.00;1.58;;;20.90;99.90;;;;;;5022015;27;90245;-31
2022/09/09 12:06:15;;;;;;;2.50;1.75;;;20.90;99.90;;;;;;5022398;27;89878;-33
2022/09/09 12:08:44;;;;;;;5.35;1.98;;;20.80;99.90;;;;;;5022104;27;89880;-30
2022/09/09 12:11:10;;;;;;;1.88;1.73;;;20.80;99.90;;;;;;5021665;27;90256;-32
2022/09/09 12:13:36;;;;;;;7.35;1.75;;;20.90;99.90;;;;;;5021034;27;91842;-32
2022/09/09 12:16:05;;;;;;;5.93;1.90;;;20.90;99.90;;;;;;5021021;28;89436;-32
2022/09/09 12:18:36;;;;;;;4.50;1.77;;;20.90;99.90;;;;;;5021491;27;89902;-31
2022/09/09 12:21:36;;;;;;;4.55;2.10;;;20.70;99.90;;;;;;5019593;28;90504;-34
2022/09/09 12:24:08;;;;;;;3.95;2.22;;;20.70;99.90;;;;;;5020835;27;89870;-31
2022/09/09 12:26:53;;;;;;;8.23;2.70;;;20.80;99.90;;;;;;5021023;27;89301;-30
2022/09/09 12:29:18;;;;;;;5.07;2.15;;;21.00;99.90;;;;;;5020739;28;89420;-32
2022/09/09 12:32:00;;;;;;;7.38;2.10;;;21.10;99.90;;;;;;5021437;28;90226;-32
2022/09/09 12:34:52;;;;;;;5.30;2.13;;;21.30;99.90;;;;;;5020231;27;89716;-33
2022/09/09 12:37:24;;;;;;;3.13;1.45;;;21.40;99.90;;;;;;5054238;22;89360;-33
2022/09/09 12:39:56;;;;;;;2.97;2.25;;;21.50;99.90;;;;;;5021635;28;89065;-32
2022/09/09 12:42:23;;;;;;;3.97;2.08;;;21.50;99.90;;;;;;5021030;27;90229;-35
2022/09/09 12:45:00;;;;;;;4.23;1.60;;;21.40;99.90;;;;;;5021526;27;89903;-32
2022/09/09 12:47:38;;;;;;;1.98;1.70;;;21.40;99.90;;;;;;5020212;27;90964;-33
2022/09/09 12:50:04;;;;;;;3.30;1.40;;;21.30;99.90;;;;;;5019809;27;89399;-32
2022/09/09 12:52:37;;;;;;;3.72;2.40;;;21.20;99.90;;;;;;5020688;27;90672;-32
2022/09/09 12:55:05;;;;;;;5.65;2.63;;;21.10;99.90;;;;;;5019708;27;91124;-34
2022/09/09 12:57:36;;;;;;;4.10;2.75;;;21.10;99.90;;;;;;5019564;27;90452;-32
2022/09/09 13:00:09;;;;;;;1.92;1.63;;;21.10;99.90;;;;;;5018005;27;89662;-31
2022/09/09 13:02:35;;;;;;;7.30;2.45;;;21.20;99.90;;;;;;5020359;28;90785;-30
2022/09/09 13:05:16;;;;;;;5.20;3.50;;;21.30;99.90;;;;;;5020495;28;88794;-33
2022/09/09 13:07:43;;;;;;;3.67;2.30;;;21.30;99.90;;;;;;5020969;27;91678;-30
2022/09/09 13:10:15;;;;;;;10.07;2.77;;;21.20;99.90;;;;;;5020340;27;88415;-32
2022/09/09 13:12:42;;;;;;;5.97;2.22;;;21.20;99.90;;;;;;5017447;27;89250;-32